CDT,Max TemperatureF,Mean TemperatureF,Min TemperatureF,Max Dew PointF,MeanDew PointF,Min DewpointF,Max Humidity, Mean Humidity, Min Humidity, Max Sea Level PressureIn, Mean Sea Level PressureIn, Min Sea Level PressureIn, Max VisibilityMiles, Mean VisibilityMiles, Min VisibilityMiles, Max Wind SpeedMPH, Mean Wind SpeedMPH, Max Gust SpeedMPH,PrecipitationIn, CloudCover, Events, WindDirDegrees
2013-5-1,54,44,33,45,37,32,96,84,71,30.46,30.29,29.94,10,9,4,16,9,22,0.45,8,Rain,348
2013-5-2,34,33,31,32,31,28,100,93,85,30.50,30.44,30.40,10,3,0,15,9,21,1.19,8,Fog-Rain-Snow,2
2013-5-3,35,33,31,32,30,28,92,87,82,30.38,30.21,30.11,10,8,2,16,9,23,0.37,8,Rain-Snow,18
2013-5-4,49,42,34,40,36,32,100,83,66,30.16,30.12,30.07,10,10,8,13,7,17,0.17,6,Rain,19
2013-5-5,68,52,35,46,40,33,92,69,45,30.15,30.11,30.05,10,10,10,10,5,13,0.00,0,,356
2013-5-6,75,56,37,46,39,33,100,62,23,30.11,30.06,30.01,10,10,10,12,3,21,0.00,0,,317
2013-5-7,81,62,43,44,41,36,96,59,21,30.07,30.01,29.96,10,10,10,15,3,17,0.00,1,,52
2013-5-8,80,62,43,51,44,39,93,59,25,30.01,29.97,29.93,10,10,10,12,3,14,0.00,3,,267
2013-5-9,60,51,41,52,47,38,100,82,64,30.07,29.99,29.94,10,9,5,20,9,25,0.61,7,Rain,26
2013-5-10,65,51,37,37,30,22,79,49,19,30.09,30.02,29.89,10,10,10,17,7,24,T,3,,17
2013-5-11,53,46,38,42,29,22,80,57,34,30.12,29.99,29.84,10,10,10,32,15,38,0.02,6,Rain,322
2013-5-12,56,44,32,26,19,12,63,41,18,30.18,30.13,30.09,10,10,10,20,9,28,0.00,1,,329
2013-5-13,63,46,29,37,28,21,72,46,20,30.15,30.00,29.73,10,10,10,18,8,24,T,1,,147
2013-5-14,91,66,41,53,43,27,82,48,14,29.76,29.60,29.43,10,10,10,28,8,38,T,0,Rain,175
2013-5-15,77,67,56,45,43,40,62,47,31,29.88,29.80,29.61,10,10,10,20,9,29,0.00,0,,276
2013-5-16,83,65,47,49,41,28,93,57,20,29.93,29.88,29.83,10,10,10,18,6,24,0.00,0,,52
2013-5-17,65,59,53,54,49,39,93,68,43,30.05,30.03,29.93,10,9,2,23,10,33,0.16,8,Rain,104
2013-5-18,80,66,52,61,55,49,89,72,54,30.03,29.95,29.84,10,10,10,18,8,24,T,3,Rain,141
2013-5-19,85,74,62,63,61,57,100,72,44,29.86,29.72,29.62,10,8,2,30,9,37,1.38,5,Rain-Thunderstorm,146
2013-5-20,78,69,59,63,60,55,100,75,50,29.68,29.60,29.54,10,9,3,25,12,37,0.67,6,Rain-Thunderstorm,162
2013-5-21,70,63,56,61,57,54,100,81,61,29.69,29.60,29.54,10,9,2,20,6,26,1.08,8,Rain-Thunderstorm,287
2013-5-22,59,54,49,54,50,46,96,87,77,29.93,29.76,29.67,10,10,9,17,9,28,0.25,8,Rain,25
2013-5-23,63,51,39,46,35,25,89,57,25,30.35,30.17,29.94,10,10,10,17,10,24,0.00,2,,21
2013-5-24,67,50,33,41,35,32,96,63,29,30.44,30.35,30.27,10,10,10,14,6,20,0.00,0,,162
2013-5-25,62,56,49,50,44,36,83,62,40,30.32,30.29,30.26,10,10,10,17,7,22,0.02,8,Rain,136
2013-5-26,65,54,43,45,39,33,83,57,31,30.28,30.21,30.12,10,10,10,21,9,28,0.00,6,,112
2013-5-27,62,57,52,54,47,39,93,72,51,30.09,29.97,29.87,10,10,9,21,10,26,0.16,8,Rain,102
2013-5-28,59,56,52,56,54,51,100,97,93,29.86,29.77,29.71,10,8,2,12,5,14,0.09,8,Rain,94
2013-5-29,80,68,56,69,60,55,100,82,64,29.85,29.79,29.72,10,7,1,29,7,38,1.65,7,Rain-Thunderstorm,142
2013-5-30,77,70,63,66,64,61,93,77,60,29.75,29.65,29.54,10,10,2,24,12,33,0.25,5,Rain,165
2013-5-31,79,69,58,63,59,54,93,73,52,29.65,29.60,29.53,10,9,1,31,11,43,0.96,5,Rain-Thunderstorm,180